To NAV CANADA Home Page Login to a new session Search on AWWS site Feedback and Comments Disclaimer Vers la page française équivalente Tips FAQ What's new on the site To the Forecasts and Observations / NOTAM section To "File a Flight Plan" website Publications and other links Update of the User's profile FIC Telephone Numbers My Weather Data Folder Route Weather Data Regional Weather Data Local Weather Data To the Forecasts and Observations / NOTAM section
Request Generated 04/17/2014 at 15:26:29 UTC . Weather information available at that time is displayed.

METAR/TAF

RED DEER/RED DEER REGIONAL/AB    

METAR CYQF 171500Z 13007KT 1 1/2SM BR OVC003 M01/M01 A2979 RMK FG4ST4 SLP130=
METAR CYQF 171400Z 13007KT 1 1/2SM BR OVC003 M01/M01 A2980 RMK FG4ST4 VIS VRB 1-2 SLP133=
METAR CYQF 171300Z 13008KT 1SM BR OVC003 M02/M02 A2980 RMK FG4ST4 SLP133=

TAF AMD CYQF 171205Z 1712/1724 15010KT P6SM OVC012 TEMPO 1712/1716
2SM -SN BR OVC003 PROB30 1712/1716 1SM BR VV002
FM171600 15008KT 6SM BR OVC012 TEMPO 1716/1720 P6SM NSW BKN025
FM172000 12008KT P6SM BKN030
RMK NXT FCST BY 171800Z=
Your time UTC time
Weather data provided by Environment Canada and NAV CANADA